Hauptseite
METAR-TAF:

METAR-TAF

Flughäfen :

Uherské Hradiště, Tschechien

Breite: 49-01-46N, Länge: 017-26-23E, Höhe: 177 m

Beobachtung

Neuester Wetterbericht von vor 8 Stunden und 46 Minuten, um 14:00 UTC
Wind 7 kt aus Süd/Südwest, variierte zwischen Süd/Südost und West
Temperatur 21°C
Luftfeuchtigkeit 9%
Luftdruck 1026 hPa
Sichtweite 10 km oder mehr
keine Wolken unter 1500 m und keine Kumulonimbus oder Gewitterwolken

METAR: LKKU 081400Z 21007KT 160V270 CAVOK 21/M13 Q1026

Zeit: 00:46 (22:46 UTC)


TAF: fehlend

Wetterbeobachtungen und Prognosen von mehr als 4000 Flughäfen (METAR und TAF Bericht).

Die verfügbaren Stationen werden durch gelbe und rote Markierungen auf der Karte dargestellt.

Führen Sie die Maus auf sie, um den Namen der Station zu sehen.

Darauf klicken, um die Beobachtung von Wetterbeobachtungen und Prognosen zu sehen.

Um die Karte zu ändern : klicken Sie auf den grünen Tasten mit einem schwarzen Kreuz Zum Vergrößern, auf den grünen Button mit einem Gedankenstrich zu verkleinern, oder auf die grünen Pfeile für benachbarte Karten.


METAR-TAF: